sensor_id;sensor_type;location;lat;lon;timestamp;temperature;humidity
935;DHT22;454;53.254;10.400;2023-12-28T05:02:36;8.30;99.90
935;DHT22;454;53.254;10.400;2023-12-28T05:05:03;8.30;99.90
935;DHT22;454;53.254;10.400;2023-12-28T05:07:30;8.20;99.90
935;DHT22;454;53.254;10.400;2023-12-28T05:09:57;8.30;99.90
935;DHT22;454;53.254;10.400;2023-12-28T05:12:24;8.30;99.90
935;DHT22;454;53.254;10.400;2023-12-28T05:14:50;8.30;99.90
935;DHT22;454;53.254;10.400;2023-12-28T05:17:17;8.30;99.90
935;DHT22;454;53.254;10.400;2023-12-28T05:19:45;8.30;99.90
935;DHT22;454;53.254;10.400;2023-12-28T05:22:12;8.30;99.90
935;DHT22;454;53.254;10.400;2023-12-28T05:24:39;8.30;99.90
935;DHT22;454;53.254;10.400;2023-12-28T05:27:05;8.40;99.90
935;DHT22;454;53.254;10.400;2023-12-28T05:29:32;8.40;99.90
935;DHT22;454;53.254;10.400;2023-12-28T05:31:59;8.40;99.90
935;DHT22;454;53.254;10.400;2023-12-28T05:34:26;8.40;99.90
935;DHT22;454;53.254;10.400;2023-12-28T05:36:54;8.40;99.90
935;DHT22;454;53.254;10.400;2023-12-28T05:39:20;8.40;99.90
935;DHT22;454;53.254;10.400;2023-12-28T05:41:47;8.50;99.90
935;DHT22;454;53.254;10.400;2023-12-28T05:44:16;8.50;99.90
935;DHT22;454;53.254;10.400;2023-12-28T05:46:43;8.50;99.90
935;DHT22;454;53.254;10.400;2023-12-28T05:49:09;8.50;99.90
935;DHT22;454;53.254;10.400;2023-12-28T05:51:39;8.60;99.90
935;DHT22;454;53.254;10.400;2023-12-28T05:54:08;8.70;99.90
935;DHT22;454;53.254;10.400;2023-12-28T05:56:35;8.60;99.90
935;DHT22;454;53.254;10.400;2023-12-28T05:59:01;8.60;99.90
935;DHT22;454;53.254;10.400;2023-12-28T06:01:28;8.70;99.90
935;DHT22;454;53.254;10.400;2023-12-28T06:03:55;8.80;99.90
935;DHT22;454;53.254;10.400;2023-12-28T06:06:21;8.80;99.90
935;DHT22;454;53.254;10.400;2023-12-28T06:08:48;8.80;99.90
935;DHT22;454;53.254;10.400;2023-12-28T06:11:16;8.80;99.90
935;DHT22;454;53.254;10.400;2023-12-28T06:13:43;8.80;99.90
935;DHT22;454;53.254;10.400;2023-12-28T06:16:10;8.80;99.90
935;DHT22;454;53.254;10.400;2023-12-28T06:18:37;8.80;99.90
935;DHT22;454;53.254;10.400;2023-12-28T06:21:03;8.80;99.90
935;DHT22;454;53.254;10.400;2023-12-28T06:23:32;8.70;99.90
935;DHT22;454;53.254;10.400;2023-12-28T06:26:03;8.80;99.90
935;DHT22;454;53.254;10.400;2023-12-28T06:28:31;8.80;99.90
935;DHT22;454;53.254;10.400;2023-12-28T06:30:58;8.90;99.90
935;DHT22;454;53.254;10.400;2023-12-28T06:33:26;8.90;99.90
935;DHT22;454;53.254;10.400;2023-12-28T06:35:54;8.90;99.90
935;DHT22;454;53.254;10.400;2023-12-28T06:38:23;9.00;99.90
935;DHT22;454;53.254;10.400;2023-12-28T06:40:49;8.90;99.90
935;DHT22;454;53.254;10.400;2023-12-28T06:43:16;8.90;99.90
935;DHT22;454;53.254;10.400;2023-12-28T06:45:44;8.90;99.90
935;DHT22;454;53.254;10.400;2023-12-28T06:48:11;8.90;99.90
935;DHT22;454;53.254;10.400;2023-12-28T06:50:38;8.90;99.90
935;DHT22;454;53.254;10.400;2023-12-28T06:53:04;9.00;99.90
935;DHT22;454;53.254;10.400;2023-12-28T06:55:31;9.00;99.90
935;DHT22;454;53.254;10.400;2023-12-28T06:57:58;8.90;99.90
935;DHT22;454;53.254;10.400;2023-12-28T07:00:25;9.00;99.90
935;DHT22;454;53.254;10.400;2023-12-28T07:02:53;9.00;99.90
935;DHT22;454;53.254;10.400;2023-12-28T07:05:20;9.00;99.90
935;DHT22;454;53.254;10.400;2023-12-28T07:07:47;9.00;99.90
935;DHT22;454;53.254;10.400;2023-12-28T07:10:13;9.10;99.90
935;DHT22;454;53.254;10.400;2023-12-28T07:12:40;9.10;99.90
935;DHT22;454;53.254;10.400;2023-12-28T07:15:08;9.20;99.90
935;DHT22;454;53.254;10.400;2023-12-28T07:17:38;9.30;99.90
935;DHT22;454;53.254;10.400;2023-12-28T07:20:08;9.30;99.90
935;DHT22;454;53.254;10.400;2023-12-28T07:22:36;9.30;99.90
935;DHT22;454;53.254;10.400;2023-12-28T07:25:03;9.30;99.90
935;DHT22;454;53.254;10.400;2023-12-28T07:27:30;9.30;99.90
935;DHT22;454;53.254;10.400;2023-12-28T07:29:57;9.30;99.90
935;DHT22;454;53.254;10.400;2023-12-28T07:32:24;9.40;99.90
935;DHT22;454;53.254;10.400;2023-12-28T07:34:51;9.40;99.90
935;DHT22;454;53.254;10.400;2023-12-28T07:37:20;9.50;99.90
935;DHT22;454;53.254;10.400;2023-12-28T07:39:46;9.60;99.90
935;DHT22;454;53.254;10.400;2023-12-28T07:42:13;9.50;99.90
935;DHT22;454;53.254;10.400;2023-12-28T07:44:40;9.60;99.90
935;DHT22;454;53.254;10.400;2023-12-28T07:47:07;9.60;99.90
935;DHT22;454;53.254;10.400;2023-12-28T07:49:34;9.50;99.90
935;DHT22;454;53.254;10.400;2023-12-28T07:52:00;9.40;99.90
935;DHT22;454;53.254;10.400;2023-12-28T07:54:29;9.40;99.90
935;DHT22;454;53.254;10.400;2023-12-28T07:56:56;9.40;99.90
935;DHT22;454;53.254;10.400;2023-12-28T07:59:23;9.40;99.90
935;DHT22;454;53.254;10.400;2023-12-28T08:01:49;9.40;99.90
935;DHT22;454;53.254;10.400;2023-12-28T08:04:16;9.40;99.90
935;DHT22;454;53.254;10.400;2023-12-28T08:06:43;9.40;99.90
935;DHT22;454;53.254;10.400;2023-12-28T08:09:10;9.50;99.90
935;DHT22;454;53.254;10.400;2023-12-28T08:11:38;9.50;99.90
935;DHT22;454;53.254;10.400;2023-12-28T08:14:05;9.50;99.90
935;DHT22;454;53.254;10.400;2023-12-28T08:16:31;9.50;99.90
935;DHT22;454;53.254;10.400;2023-12-28T08:19:00;9.50;99.90
935;DHT22;454;53.254;10.400;2023-12-28T08:21:27;9.60;99.90
935;DHT22;454;53.254;10.400;2023-12-28T08:23:53;9.60;99.90
935;DHT22;454;53.254;10.400;2023-12-28T08:26:20;9.60;99.90
935;DHT22;454;53.254;10.400;2023-12-28T08:28:48;9.70;99.90
935;DHT22;454;53.254;10.400;2023-12-28T08:31:15;9.70;99.90
935;DHT22;454;53.254;10.400;2023-12-28T08:33:42;9.80;99.90
935;DHT22;454;53.254;10.400;2023-12-28T08:36:09;9.80;99.90
935;DHT22;454;53.254;10.400;2023-12-28T08:38:36;9.90;99.90
935;DHT22;454;53.254;10.400;2023-12-28T08:41:03;10.00;99.90
935;DHT22;454;53.254;10.400;2023-12-28T08:43:34;9.90;99.90
935;DHT22;454;53.254;10.400;2023-12-28T08:46:02;10.00;99.90
935;DHT22;454;53.254;10.400;2023-12-28T08:48:29;10.10;99.90
935;DHT22;454;53.254;10.400;2023-12-28T08:50:56;10.10;99.90
935;DHT22;454;53.254;10.400;2023-12-28T08:53:22;10.20;99.90
935;DHT22;454;53.254;10.400;2023-12-28T08:55:49;10.20;99.90
935;DHT22;454;53.254;10.400;2023-12-28T08:58:16;10.30;99.90
935;DHT22;454;53.254;10.400;2023-12-28T09:00:42;10.30;99.90
935;DHT22;454;53.254;10.400;2023-12-28T09:03:12;10.30;99.90
935;DHT22;454;53.254;10.400;2023-12-28T09:05:38;10.30;99.90
935;DHT22;454;53.254;10.400;2023-12-28T09:08:06;10.20;99.90
935;DHT22;454;53.254;10.400;2023-12-28T09:10:33;10.20;99.90
935;DHT22;454;53.254;10.400;2023-12-28T09:13:00;10.20;99.90
935;DHT22;454;53.254;10.400;2023-12-28T09:15:27;10.30;99.90
935;DHT22;454;53.254;10.400;2023-12-28T09:17:53;10.40;99.90
935;DHT22;454;53.254;10.400;2023-12-28T09:20:23;10.50;99.90
935;DHT22;454;53.254;10.400;2023-12-28T09:22:49;10.50;99.90
935;DHT22;454;53.254;10.400;2023-12-28T09:25:21;10.50;99.90
935;DHT22;454;53.254;10.400;2023-12-28T09:27:48;10.60;99.90
935;DHT22;454;53.254;10.400;2023-12-28T09:30:15;10.60;99.90
935;DHT22;454;53.254;10.400;2023-12-28T09:32:41;10.50;99.90
935;DHT22;454;53.254;10.400;2023-12-28T09:35:08;10.60;99.90
935;DHT22;454;53.254;10.400;2023-12-28T09:37:36;10.60;99.90
935;DHT22;454;53.254;10.400;2023-12-28T09:40:03;10.70;99.90
935;DHT22;454;53.254;10.400;2023-12-28T09:42:36;10.70;99.90
935;DHT22;454;53.254;10.400;2023-12-28T09:45:06;10.70;99.90
935;DHT22;454;53.254;10.400;2023-12-28T09:47:35;10.70;99.90
935;DHT22;454;53.254;10.400;2023-12-28T09:50:02;10.70;99.90
935;DHT22;454;53.254;10.400;2023-12-28T09:52:29;10.80;99.90
935;DHT22;454;53.254;10.400;2023-12-28T09:54:57;10.90;99.90
935;DHT22;454;53.254;10.400;2023-12-28T09:57:23;11.00;99.90
935;DHT22;454;53.254;10.400;2023-12-28T09:59:50;11.00;99.90
935;DHT22;454;53.254;10.400;2023-12-28T10:02:18;11.00;99.90
935;DHT22;454;53.254;10.400;2023-12-28T10:04:44;11.00;99.90
935;DHT22;454;53.254;10.400;2023-12-28T10:07:11;11.10;99.90
935;DHT22;454;53.254;10.400;2023-12-28T10:09:38;11.10;99.90
935;DHT22;454;53.254;10.400;2023-12-28T10:12:07;11.10;99.90
935;DHT22;454;53.254;10.400;2023-12-28T10:14:34;11.20;99.90
935;DHT22;454;53.254;10.400;2023-12-28T10:17:01;11.20;99.90
935;DHT22;454;53.254;10.400;2023-12-28T10:19:28;11.20;99.90
935;DHT22;454;53.254;10.400;2023-12-28T10:21:55;11.30;99.90
935;DHT22;454;53.254;10.400;2023-12-28T10:24:22;11.40;99.90
935;DHT22;454;53.254;10.400;2023-12-28T10:26:49;11.40;99.90
935;DHT22;454;53.254;10.400;2023-12-28T10:29:17;11.40;99.90
935;DHT22;454;53.254;10.400;2023-12-28T10:31:44;11.40;99.90
935;DHT22;454;53.254;10.400;2023-12-28T10:34:14;11.40;99.90
935;DHT22;454;53.254;10.400;2023-12-28T10:36:41;11.40;99.90
935;DHT22;454;53.254;10.400;2023-12-28T10:39:09;11.40;99.90
935;DHT22;454;53.254;10.400;2023-12-28T10:41:37;11.50;99.90
935;DHT22;454;53.254;10.400;2023-12-28T10:44:05;11.40;99.90
935;DHT22;454;53.254;10.400;2023-12-28T10:46:38;11.40;99.90
935;DHT22;454;53.254;10.400;2023-12-28T10:49:10;11.40;99.90
935;DHT22;454;53.254;10.400;2023-12-28T10:51:40;11.40;99.90
935;DHT22;454;53.254;10.400;2023-12-28T10:54:20;11.40;99.90
935;DHT22;454;53.254;10.400;2023-12-28T10:56:54;11.40;99.90
935;DHT22;454;53.254;10.400;2023-12-28T10:59:26;11.40;99.90
935;DHT22;454;53.254;10.400;2023-12-28T11:01:59;11.40;99.90
935;DHT22;454;53.254;10.400;2023-12-28T11:04:34;11.40;99.90
935;DHT22;454;53.254;10.400;2023-12-28T11:07:05;11.40;99.90
935;DHT22;454;53.254;10.400;2023-12-28T11:09:34;11.40;99.90
935;DHT22;454;53.254;10.400;2023-12-28T11:12:02;11.40;99.90
935;DHT22;454;53.254;10.400;2023-12-28T11:14:31;11.40;99.90
935;DHT22;454;53.254;10.400;2023-12-28T11:16:59;11.30;99.90
935;DHT22;454;53.254;10.400;2023-12-28T11:19:27;11.30;99.90
935;DHT22;454;53.254;10.400;2023-12-28T11:21:55;11.30;99.90
935;DHT22;454;53.254;10.400;2023-12-28T11:24:23;11.20;99.90
935;DHT22;454;53.254;10.400;2023-12-28T11:26:52;11.20;99.90
935;DHT22;454;53.254;10.400;2023-12-28T11:29:20;11.20;99.90
935;DHT22;454;53.254;10.400;2023-12-28T11:31:50;11.20;99.90
935;DHT22;454;53.254;10.400;2023-12-28T11:34:19;11.20;99.90
935;DHT22;454;53.254;10.400;2023-12-28T11:36:49;11.20;99.90
935;DHT22;454;53.254;10.400;2023-12-28T11:39:26;11.20;99.90
935;DHT22;454;53.254;10.400;2023-12-28T11:41:59;11.20;99.90
935;DHT22;454;53.254;10.400;2023-12-28T11:44:28;11.30;99.90
935;DHT22;454;53.254;10.400;2023-12-28T11:46:55;11.30;99.90
935;DHT22;454;53.254;10.400;2023-12-28T11:49:27;11.30;99.90
935;DHT22;454;53.254;10.400;2023-12-28T11:51:56;11.30;99.90
935;DHT22;454;53.254;10.400;2023-12-28T11:54:24;11.30;99.90
935;DHT22;454;53.254;10.400;2023-12-28T11:56:50;11.30;99.90
935;DHT22;454;53.254;10.400;2023-12-28T11:59:17;11.40;99.90
935;DHT22;454;53.254;10.400;2023-12-28T12:01:49;11.40;99.90
935;DHT22;454;53.254;10.400;2023-12-28T12:04:16;11.40;99.90
935;DHT22;454;53.254;10.400;2023-12-28T12:06:44;11.40;99.90
935;DHT22;454;53.254;10.400;2023-12-28T12:09:11;11.40;99.90
935;DHT22;454;53.254;10.400;2023-12-28T12:11:38;11.40;99.90
935;DHT22;454;53.254;10.400;2023-12-28T12:14:08;11.30;99.90
935;DHT22;454;53.254;10.400;2023-12-28T12:16:35;11.40;99.90
935;DHT22;454;53.254;10.400;2023-12-28T12:19:02;11.40;99.90
935;DHT22;454;53.254;10.400;2023-12-28T12:21:29;11.40;99.90
935;DHT22;454;53.254;10.400;2023-12-28T12:23:57;11.40;99.90
935;DHT22;454;53.254;10.400;2023-12-28T12:26:24;11.40;99.90
935;DHT22;454;53.254;10.400;2023-12-28T12:28:51;11.40;99.90
935;DHT22;454;53.254;10.400;2023-12-28T12:31:18;11.50;99.90
935;DHT22;454;53.254;10.400;2023-12-28T12:33:45;11.50;99.90
935;DHT22;454;53.254;10.400;2023-12-28T12:36:12;11.40;99.90
935;DHT22;454;53.254;10.400;2023-12-28T12:38:39;11.40;99.90
935;DHT22;454;53.254;10.400;2023-12-28T12:41:10;11.40;99.90
935;DHT22;454;53.254;10.400;2023-12-28T12:43:37;11.40;99.90
935;DHT22;454;53.254;10.400;2023-12-28T12:46:04;11.40;99.90
935;DHT22;454;53.254;10.400;2023-12-28T12:48:31;11.30;99.90
935;DHT22;454;53.254;10.400;2023-12-28T12:50:57;11.30;99.90
935;DHT22;454;53.254;10.400;2023-12-28T12:53:24;11.30;99.90
935;DHT22;454;53.254;10.400;2023-12-28T12:55:54;11.30;99.90
935;DHT22;454;53.254;10.400;2023-12-28T12:58:22;11.30;99.90
935;DHT22;454;53.254;10.400;2023-12-28T13:00:49;11.30;99.90
935;DHT22;454;53.254;10.400;2023-12-28T13:03:16;11.30;99.90
935;DHT22;454;53.254;10.400;2023-12-28T13:05:43;11.30;99.90
935;DHT22;454;53.254;10.400;2023-12-28T13:08:09;11.30;99.90
935;DHT22;454;53.254;10.400;2023-12-28T13:10:36;11.40;99.90
935;DHT22;454;53.254;10.400;2023-12-28T13:13:06;11.40;99.90
935;DHT22;454;53.254;10.400;2023-12-28T13:15:34;11.30;99.90
935;DHT22;454;53.254;10.400;2023-12-28T13:18:01;11.30;99.90
935;DHT22;454;53.254;10.400;2023-12-28T13:20:28;11.30;99.90
935;DHT22;454;53.254;10.400;2023-12-28T13:22:54;11.20;99.90
935;DHT22;454;53.254;10.400;2023-12-28T13:25:22;11.20;99.90
935;DHT22;454;53.254;10.400;2023-12-28T13:27:49;11.20;99.90
935;DHT22;454;53.254;10.400;2023-12-28T13:30:15;11.20;99.90
935;DHT22;454;53.254;10.400;2023-12-28T13:32:43;11.30;99.90
935;DHT22;454;53.254;10.400;2023-12-28T13:35:10;11.20;99.90
935;DHT22;454;53.254;10.400;2023-12-28T13:37:37;11.20;99.90
935;DHT22;454;53.254;10.400;2023-12-28T13:40:05;11.20;99.90
935;DHT22;454;53.254;10.400;2023-12-28T13:42:32;11.20;99.90
935;DHT22;454;53.254;10.400;2023-12-28T13:44:59;11.20;99.90
935;DHT22;454;53.254;10.400;2023-12-28T13:47:26;11.20;99.90
935;DHT22;454;53.254;10.400;2023-12-28T13:49:54;11.20;99.90
935;DHT22;454;53.254;10.400;2023-12-28T13:52:21;11.20;99.90
935;DHT22;454;53.254;10.400;2023-12-28T13:54:47;11.10;99.90
935;DHT22;454;53.254;10.400;2023-12-28T13:57:15;11.10;99.90
935;DHT22;454;53.254;10.400;2023-12-28T13:59:42;11.10;99.90
935;DHT22;454;53.254;10.400;2023-12-28T14:02:08;11.10;99.90
935;DHT22;454;53.254;10.400;2023-12-28T14:04:35;11.10;99.90
935;DHT22;454;53.254;10.400;2023-12-28T14:07:03;11.00;99.90
935;DHT22;454;53.254;10.400;2023-12-28T14:09:30;11.00;99.90
935;DHT22;454;53.254;10.400;2023-12-28T14:11:58;11.00;99.90
935;DHT22;454;53.254;10.400;2023-12-28T14:14:25;11.00;99.90
935;DHT22;454;53.254;10.400;2023-12-28T14:16:52;11.00;99.90
935;DHT22;454;53.254;10.400;2023-12-28T14:19:18;11.00;99.90
935;DHT22;454;53.254;10.400;2023-12-28T14:21:45;11.00;99.90
935;DHT22;454;53.254;10.400;2023-12-28T14:24:15;11.00;99.90
935;DHT22;454;53.254;10.400;2023-12-28T14:26:44;10.90;99.90
935;DHT22;454;53.254;10.400;2023-12-28T14:29:12;10.90;99.90
935;DHT22;454;53.254;10.400;2023-12-28T14:31:39;10.90;99.90
935;DHT22;454;53.254;10.400;2023-12-28T14:34:06;10.90;99.90
935;DHT22;454;53.254;10.400;2023-12-28T14:36:36;10.90;99.90
935;DHT22;454;53.254;10.400;2023-12-28T14:39:05;10.90;99.90
935;DHT22;454;53.254;10.400;2023-12-28T14:41:33;10.90;99.90
935;DHT22;454;53.254;10.400;2023-12-28T14:44:00;10.90;99.90
935;DHT22;454;53.254;10.400;2023-12-28T14:46:27;10.90;99.90
935;DHT22;454;53.254;10.400;2023-12-28T14:48:54;10.90;99.90
935;DHT22;454;53.254;10.400;2023-12-28T14:51:21;10.90;99.90
935;DHT22;454;53.254;10.400;2023-12-28T14:53:48;10.90;99.90
935;DHT22;454;53.254;10.400;2023-12-28T14:56:15;10.80;99.90
935;DHT22;454;53.254;10.400;2023-12-28T14:58:43;10.80;99.90
935;DHT22;454;53.254;10.400;2023-12-28T15:01:13;10.80;99.90
935;DHT22;454;53.254;10.400;2023-12-28T15:03:40;10.80;99.90
935;DHT22;454;53.254;10.400;2023-12-28T15:06:06;10.80;99.90
935;DHT22;454;53.254;10.400;2023-12-28T15:08:33;10.80;99.90
935;DHT22;454;53.254;10.400;2023-12-28T15:11:01;10.70;99.90
935;DHT22;454;53.254;10.400;2023-12-28T15:13:28;10.80;99.90
935;DHT22;454;53.254;10.400;2023-12-28T15:15:57;10.80;99.90
935;DHT22;454;53.254;10.400;2023-12-28T15:18:24;10.80;99.90
935;DHT22;454;53.254;10.400;2023-12-28T15:20:52;10.80;99.90
935;DHT22;454;53.254;10.400;2023-12-28T15:23:19;10.80;99.90
935;DHT22;454;53.254;10.400;2023-12-28T15:25:46;10.80;99.90
935;DHT22;454;53.254;10.400;2023-12-28T15:28:12;10.70;99.90
935;DHT22;454;53.254;10.400;2023-12-28T15:30:39;10.70;99.90
935;DHT22;454;53.254;10.400;2023-12-28T15:33:07;10.80;99.90
935;DHT22;454;53.254;10.400;2023-12-28T15:35:37;10.70;99.90
935;DHT22;454;53.254;10.400;2023-12-28T15:38:04;10.70;99.90
935;DHT22;454;53.254;10.400;2023-12-28T15:40:31;10.70;99.90
935;DHT22;454;53.254;10.400;2023-12-28T15:42:58;10.70;99.90
935;DHT22;454;53.254;10.400;2023-12-28T15:45:24;10.70;99.90
935;DHT22;454;53.254;10.400;2023-12-28T15:47:52;10.70;99.90
935;DHT22;454;53.254;10.400;2023-12-28T15:50:20;10.70;99.90
935;DHT22;454;53.254;10.400;2023-12-28T15:52:47;10.70;99.90
935;DHT22;454;53.254;10.400;2023-12-28T15:55:14;10.70;99.90
935;DHT22;454;53.254;10.400;2023-12-28T15:57:40;10.70;99.90
935;DHT22;454;53.254;10.400;2023-12-28T16:00:08;10.60;99.90
935;DHT22;454;53.254;10.400;2023-12-28T16:02:35;10.70;99.90
935;DHT22;454;53.254;10.400;2023-12-28T16:05:02;10.70;99.90
935;DHT22;454;53.254;10.400;2023-12-28T16:07:30;10.70;99.90
935;DHT22;454;53.254;10.400;2023-12-28T16:09:56;10.70;99.90
935;DHT22;454;53.254;10.400;2023-12-28T16:12:23;10.70;99.90
935;DHT22;454;53.254;10.400;2023-12-28T16:14:51;10.70;99.90
935;DHT22;454;53.254;10.400;2023-12-28T16:17:18;10.70;99.90
935;DHT22;454;53.254;10.400;2023-12-28T16:19:45;10.70;99.90
935;DHT22;454;53.254;10.400;2023-12-28T16:22:12;10.70;99.90
935;DHT22;454;53.254;10.400;2023-12-28T16:24:41;10.70;99.90
935;DHT22;454;53.254;10.400;2023-12-28T16:27:08;10.70;99.90
935;DHT22;454;53.254;10.400;2023-12-28T16:29:34;10.80;99.90
935;DHT22;454;53.254;10.400;2023-12-28T16:32:01;10.70;99.90
935;DHT22;454;53.254;10.400;2023-12-28T16:34:28;10.70;99.90
935;DHT22;454;53.254;10.400;2023-12-28T16:36:55;10.70;99.90
935;DHT22;454;53.254;10.400;2023-12-28T16:39:21;10.60;99.90
935;DHT22;454;53.254;10.400;2023-12-28T16:41:50;10.70;99.90
935;DHT22;454;53.254;10.400;2023-12-28T16:44:16;10.60;99.90
935;DHT22;454;53.254;10.400;2023-12-28T16:46:44;10.60;99.90
935;DHT22;454;53.254;10.400;2023-12-28T16:49:11;10.60;99.90
935;DHT22;454;53.254;10.400;2023-12-28T16:51:38;10.60;99.90
935;DHT22;454;53.254;10.400;2023-12-28T16:54:05;10.60;99.90
935;DHT22;454;53.254;10.400;2023-12-28T16:56:32;10.60;99.90
935;DHT22;454;53.254;10.400;2023-12-28T16:59:00;10.60;99.90
935;DHT22;454;53.254;10.400;2023-12-28T17:01:26;10.60;99.90
935;DHT22;454;53.254;10.400;2023-12-28T17:03:53;10.70;99.90
935;DHT22;454;53.254;10.400;2023-12-28T17:06:20;10.70;99.90
935;DHT22;454;53.254;10.400;2023-12-28T17:08:47;10.60;99.90
935;DHT22;454;53.254;10.400;2023-12-28T17:11:15;10.60;99.90
935;DHT22;454;53.254;10.400;2023-12-28T17:13:43;10.60;99.90
935;DHT22;454;53.254;10.400;2023-12-28T17:16:12;10.60;99.90
935;DHT22;454;53.254;10.400;2023-12-28T17:18:39;10.50;99.90
935;DHT22;454;53.254;10.400;2023-12-28T17:21:10;10.50;99.90
935;DHT22;454;53.254;10.400;2023-12-28T17:23:38;10.60;99.90
935;DHT22;454;53.254;10.400;2023-12-28T17:26:14;10.60;99.90
935;DHT22;454;53.254;10.400;2023-12-28T17:28:46;10.60;99.90
935;DHT22;454;53.254;10.400;2023-12-28T17:31:18;10.60;99.90
935;DHT22;454;53.254;10.400;2023-12-28T17:33:47;10.60;99.90
935;DHT22;454;53.254;10.400;2023-12-28T17:36:14;10.60;99.90
935;DHT22;454;53.254;10.400;2023-12-28T17:38:42;10.60;99.90
935;DHT22;454;53.254;10.400;2023-12-28T17:41:11;10.60;99.90
935;DHT22;454;53.254;10.400;2023-12-28T17:43:42;10.60;99.90
935;DHT22;454;53.254;10.400;2023-12-28T17:46:14;10.60;99.90
935;DHT22;454;53.254;10.400;2023-12-28T17:48:48;10.60;99.90
935;DHT22;454;53.254;10.400;2023-12-28T17:51:15;10.60;99.90
935;DHT22;454;53.254;10.400;2023-12-28T17:53:42;10.60;99.90
935;DHT22;454;53.254;10.400;2023-12-28T17:56:10;10.60;99.90
935;DHT22;454;53.254;10.400;2023-12-28T17:58:38;10.60;99.90
935;DHT22;454;53.254;10.400;2023-12-28T18:01:06;10.60;99.90
935;DHT22;454;53.254;10.400;2023-12-28T18:03:32;10.60;99.90
935;DHT22;454;53.254;10.400;2023-12-28T18:06:01;10.70;99.90
935;DHT22;454;53.254;10.400;2023-12-28T18:08:27;10.70;99.90
935;DHT22;454;53.254;10.400;2023-12-28T18:10:54;10.70;99.90
935;DHT22;454;53.254;10.400;2023-12-28T18:13:21;10.70;99.90
935;DHT22;454;53.254;10.400;2023-12-28T18:15:48;10.60;99.90
935;DHT22;454;53.254;10.400;2023-12-28T18:18:15;10.70;99.90
935;DHT22;454;53.254;10.400;2023-12-28T18:20:42;10.60;99.90
935;DHT22;454;53.254;10.400;2023-12-28T18:23:11;10.60;99.90
935;DHT22;454;53.254;10.400;2023-12-28T18:25:38;10.60;99.90
935;DHT22;454;53.254;10.400;2023-12-28T18:28:05;10.60;99.90
935;DHT22;454;53.254;10.400;2023-12-28T18:30:32;10.60;99.90
935;DHT22;454;53.254;10.400;2023-12-28T18:33:00;10.60;99.90
935;DHT22;454;53.254;10.400;2023-12-28T18:35:27;10.50;99.90
935;DHT22;454;53.254;10.400;2023-12-28T18:37:54;10.60;99.90
935;DHT22;454;53.254;10.400;2023-12-28T18:40:22;10.60;99.90
935;DHT22;454;53.254;10.400;2023-12-28T18:42:49;10.60;99.90
935;DHT22;454;53.254;10.400;2023-12-28T18:45:16;10.60;99.90
935;DHT22;454;53.254;10.400;2023-12-28T18:47:42;10.60;99.90
935;DHT22;454;53.254;10.400;2023-12-28T18:50:11;10.60;99.90
935;DHT22;454;53.254;10.400;2023-12-28T18:52:38;10.60;99.90
935;DHT22;454;53.254;10.400;2023-12-28T18:55:06;10.50;99.90
935;DHT22;454;53.254;10.400;2023-12-28T18:57:34;10.50;99.90
935;DHT22;454;53.254;10.400;2023-12-28T19:00:00;10.50;99.90
935;DHT22;454;53.254;10.400;2023-12-28T19:02:27;10.50;99.90
935;DHT22;454;53.254;10.400;2023-12-28T19:04:54;10.60;99.90
935;DHT22;454;53.254;10.400;2023-12-28T19:07:21;10.50;99.90
935;DHT22;454;53.254;10.400;2023-12-28T19:09:49;10.50;99.90
935;DHT22;454;53.254;10.400;2023-12-28T19:12:15;10.50;99.90
935;DHT22;454;53.254;10.400;2023-12-28T19:14:44;10.60;99.90
935;DHT22;454;53.254;10.400;2023-12-28T19:17:10;10.60;99.90
935;DHT22;454;53.254;10.400;2023-12-28T19:19:38;10.60;99.90
935;DHT22;454;53.254;10.400;2023-12-28T19:22:04;10.50;99.90
935;DHT22;454;53.254;10.400;2023-12-28T19:24:31;10.60;99.90
935;DHT22;454;53.254;10.400;2023-12-28T19:26:58;10.50;99.90
935;DHT22;454;53.254;10.400;2023-12-28T19:29:25;10.60;99.90
935;DHT22;454;53.254;10.400;2023-12-28T19:31:53;10.50;99.90
935;DHT22;454;53.254;10.400;2023-12-28T19:34:20;10.60;99.90
935;DHT22;454;53.254;10.400;2023-12-28T19:36:47;10.60;99.90
935;DHT22;454;53.254;10.400;2023-12-28T19:39:14;10.60;99.90
935;DHT22;454;53.254;10.400;2023-12-28T19:41:40;10.60;99.90
935;DHT22;454;53.254;10.400;2023-12-28T19:44:07;10.50;99.90
935;DHT22;454;53.254;10.400;2023-12-28T19:46:34;10.60;99.90
935;DHT22;454;53.254;10.400;2023-12-28T19:49:02;10.60;99.90
935;DHT22;454;53.254;10.400;2023-12-28T19:51:28;10.60;99.90
935;DHT22;454;53.254;10.400;2023-12-28T19:53:55;10.60;99.90
935;DHT22;454;53.254;10.400;2023-12-28T19:56:22;10.60;99.90
935;DHT22;454;53.254;10.400;2023-12-28T19:58:49;10.60;99.90
935;DHT22;454;53.254;10.400;2023-12-28T20:01:15;10.60;99.90
935;DHT22;454;53.254;10.400;2023-12-28T20:03:43;10.60;99.90
935;DHT22;454;53.254;10.400;2023-12-28T20:06:11;10.60;99.90
935;DHT22;454;53.254;10.400;2023-12-28T20:08:37;10.60;99.90
935;DHT22;454;53.254;10.400;2023-12-28T20:11:04;10.60;99.90
935;DHT22;454;53.254;10.400;2023-12-28T20:15:59;10.70;99.90
935;DHT22;454;53.254;10.400;2023-12-28T20:18:25;10.70;99.90
935;DHT22;454;53.254;10.400;2023-12-28T20:20:52;10.70;99.90
935;DHT22;454;53.254;10.400;2023-12-28T20:23:20;10.70;99.90
935;DHT22;454;53.254;10.400;2023-12-28T20:25:47;10.70;99.90
935;DHT22;454;53.254;10.400;2023-12-28T20:28:14;10.70;99.90
935;DHT22;454;53.254;10.400;2023-12-28T20:30:40;10.80;99.90
935;DHT22;454;53.254;10.400;2023-12-28T20:33:07;10.80;99.90
935;DHT22;454;53.254;10.400;2023-12-28T20:35:35;10.80;99.90
935;DHT22;454;53.254;10.400;2023-12-28T20:38:01;10.70;99.90
935;DHT22;454;53.254;10.400;2023-12-28T20:40:29;10.70;99.90
935;DHT22;454;53.254;10.400;2023-12-28T20:42:56;10.70;99.90
935;DHT22;454;53.254;10.400;2023-12-28T20:45:23;10.80;99.90
935;DHT22;454;53.254;10.400;2023-12-28T20:47:50;10.80;99.90
935;DHT22;454;53.254;10.400;2023-12-28T20:50:16;10.80;99.90
935;DHT22;454;53.254;10.400;2023-12-28T20:52:44;10.80;99.90
935;DHT22;454;53.254;10.400;2023-12-28T20:55:10;10.80;99.90
935;DHT22;454;53.254;10.400;2023-12-28T20:57:38;10.80;99.90
935;DHT22;454;53.254;10.400;2023-12-28T21:00:06;10.80;99.90
935;DHT22;454;53.254;10.400;2023-12-28T21:02:33;10.80;99.90
935;DHT22;454;53.254;10.400;2023-12-28T21:05:00;10.80;99.90
935;DHT22;454;53.254;10.400;2023-12-28T21:07:26;10.80;99.90
935;DHT22;454;53.254;10.400;2023-12-28T21:09:53;10.80;99.90
935;DHT22;454;53.254;10.400;2023-12-28T21:12:20;10.80;99.90
935;DHT22;454;53.254;10.400;2023-12-28T21:14:51;10.80;99.90
935;DHT22;454;53.254;10.400;2023-12-28T21:17:17;10.80;99.90
935;DHT22;454;53.254;10.400;2023-12-28T21:19:44;10.80;99.90
935;DHT22;454;53.254;10.400;2023-12-28T21:22:11;10.80;99.90
935;DHT22;454;53.254;10.400;2023-12-28T21:24:38;10.80;99.90
935;DHT22;454;53.254;10.400;2023-12-28T21:27:06;10.80;99.90